Terminal Aerodrome Forecast
Issued by NWS

Home | Current Version | Previous Version | Text Only | Print | Product List | Glossary On
Versions: 1 2 3 4 5 6 7 8 9 10 11 12 13 14 15 16
000
FTAK31 PAJN 311400 AAA
TAFAPG
TAF AMD
PAPG 311436Z 3115/0112 00000KT 1/4SM FG VV001
     FM311600 VRB03KT 3SM BR OVC003
     FM311700 06004KT P6SM FEW005 SCT120
     FM010400 11004KT P6SM SCT120
     FM010800 00000KT 3SM BR FEW002
      TEMPO 0108/0112 1/2SM FG BKN002=

USA.gov is the U.S. government's official web portal to all federal, state and local government web resources and services.